Jalalabad Airport
OAJL : now visible

Airfield :











YOU CAN JOIN US ON...

 
LOGIN :

Register | Disclaimer

   EN    FR    IT 

 









Legend :    VFR   Marginal VFR   IFR   Intensive IFR   Very Intensive IFR
Visi :
Ceiling :
>= 8 km
>= 3000ft
5 to 8 km
1000 to 3000 ft
1500m to 5 km
500 to 1000 ft
800 to 1500m
200 to 500 ft
< 800m
< 200 ft
Symbols :   Thunderstorms  Fog  Heavy snow  Heavy precipitations  Wind > 20 kt






- Airport Elevation : 1814 ft
- IATA code : JAA


OAJL - Jalalabad

CURRENT METAR :
  • 210955Z 00000KT 9000 BR FEW025 BKN036 OVC080 10/05 A3020 RMK AO2A VIS E-S 5000 SLP228 WND DATA ESTMD T00970045

EXPIRED METARs :
  • 210855Z 00000KT 6000 BR BKN043 OVC050 09/05 A3020 RMK SLPNO 58006 AO2A SLP228 WND DATA ESTMD 60001 T00920050 58011
  • 210755Z 00000KT 8000 BR BKN040 BKN050 OVC090 09/05 A3021 RMK AO2A RAB0641E0725 SLP232 WND ESTMD T00890050

TAF TAF OAJL
Valid from the 21 at 08:00 until the 22 at 14:00 UTC


210800Z 2108/2214 VRB06KT 6000 BR -SHRA BKN050 620503 QNH3014INS
BECMG 2112/2113 VRB06KT 5000 FU HZ BKN050 620506 QNH3017INS
BECMG 2118/2119 VRB06KT 6000 BR VCSH BKN050 620606 QNH3019INS
BECMG 2202/2203 VRB06KT 8000 BR BKN060 620606 QNH3026INS
BECMG 2205/2206 VRB06KT 9999 NSW SCT060 QNH3025INS
BECMG 2212/2213 VRB06KT 5000 FU HZ SCT100 QNH3026INS TX12/2110Z TN06/2202Z



MET'MAP, your aeronautical weather chart ! - Copyright ORBIFLY December 2007 - Disclaimer

ORBIFLY MET'MAP TEAM :

Programming & Development : Alexandra Zaïnal
Concept & original design : Baudouin d'Aumeries
Assistance for programming : Marc-Olivier Méhu
Technical & hardware support : Manuel Goepfert

Contact : metmap@orbifly.com




SOURCES & CREDITS :

   NOAA       Earth
Advisory